createdAt,value
2022-08-03T00:02:16.013Z,99750.78
2022-08-03T00:04:42.943Z,99754.91
2022-08-03T00:07:09.511Z,99753.94
2022-08-03T00:09:36.612Z,99753.47
2022-08-03T00:12:05.233Z,99751.69
2022-08-03T00:14:31.811Z,99744.91
2022-08-03T00:16:58.327Z,99745.13
2022-08-03T00:19:25.073Z,99743.06
2022-08-03T00:21:51.750Z,99739.59
2022-08-03T00:24:18.304Z,99733.53
2022-08-03T00:26:45.047Z,99738.06
2022-08-03T00:29:13.174Z,99734.56
2022-08-03T00:31:52.810Z,99740.50
2022-08-03T00:34:36.382Z,99744.66
2022-08-03T00:37:12.392Z,99735.69
2022-08-03T00:39:39.002Z,99735.34
2022-08-03T00:42:05.802Z,99730.16
2022-08-03T00:44:39.767Z,99724.31
2022-08-03T00:47:06.686Z,99736.50
2022-08-03T00:49:33.478Z,99741.34
2022-08-03T00:52:01.143Z,99736.34
2022-08-03T00:54:37.961Z,99739.28
2022-08-03T00:57:04.904Z,99734.66
2022-08-03T00:59:33.018Z,99737.25
2022-08-03T01:01:59.641Z,99730.66
2022-08-03T01:04:26.227Z,99729.25
2022-08-03T01:07:00.965Z,99732.03
2022-08-03T01:10:06.354Z,99702.50
2022-08-03T01:12:39.000Z,99730.50
2022-08-03T01:15:15.575Z,99725.81
2022-08-03T01:17:51.293Z,99728.59
2022-08-03T01:20:20.964Z,99725.19
2022-08-03T01:23:10.523Z,99731.22
2022-08-03T01:25:55.230Z,99721.56
2022-08-03T01:28:47.945Z,99724.84
2022-08-03T01:31:21.784Z,99724.53
2022-08-03T01:33:55.587Z,99718.97
2022-08-03T01:36:24.396Z,99721.75
2022-08-03T01:38:54.989Z,99729.91
2022-08-03T01:41:32.132Z,99720.19
2022-08-03T01:44:29.178Z,99717.41
2022-08-03T01:46:50.012Z,99717.75
2022-08-03T01:49:17.487Z,99715.53
2022-08-03T01:51:56.667Z,99717.06
2022-08-03T01:54:35.007Z,99712.19
2022-08-03T01:57:03.722Z,99709.28
2022-08-03T01:59:32.399Z,99717.88
2022-08-03T02:02:25.228Z,99717.06
2022-08-03T02:04:50.377Z,99707.00
2022-08-03T02:07:17.610Z,99715.84
2022-08-03T02:09:46.683Z,99707.72
2022-08-03T02:12:14.556Z,99711.50
2022-08-03T02:14:43.232Z,99716.88
2022-08-03T02:17:13.909Z,99719.13
2022-08-03T02:20:22.168Z,99713.25
2022-08-03T02:22:48.838Z,99695.41
2022-08-03T02:25:32.222Z,99710.09
2022-08-03T02:28:05.975Z,99703.88
2022-08-03T02:34:26.875Z,99713.94
2022-08-03T02:36:54.478Z,99710.97
2022-08-03T02:39:24.693Z,99710.84
2022-08-03T02:41:52.679Z,99709.75
2022-08-03T02:44:24.657Z,99702.88
2022-08-03T02:46:55.739Z,99694.88
2022-08-03T02:49:40.689Z,99704.75
2022-08-03T02:52:15.755Z,99705.09
2022-08-03T02:54:46.148Z,99689.69
2022-08-03T02:57:14.995Z,99699.59
2022-08-03T03:03:07.502Z,99681.91
2022-08-03T03:05:53.117Z,99691.78
2022-08-03T03:08:26.116Z,99698.38
2022-08-03T03:10:55.860Z,99693.88
2022-08-03T03:13:23.050Z,99698.88
2022-08-03T03:15:50.718Z,99694.19
2022-08-03T03:18:21.860Z,99691.75
2022-08-03T03:20:52.873Z,99701.66
2022-08-03T03:23:21.280Z,99691.94
2022-08-03T03:25:49.531Z,99700.44
2022-08-03T03:28:16.622Z,99705.09
2022-08-03T03:30:43.638Z,99704.25
2022-08-03T03:33:10.523Z,99708.44
2022-08-03T03:35:39.224Z,99709.47
2022-08-03T03:38:07.405Z,99709.47
2022-08-03T03:40:35.168Z,99704.81
2022-08-03T03:43:02.150Z,99710.22
2022-08-03T03:45:31.542Z,99707.97
2022-08-03T03:47:59.964Z,99706.41
2022-08-03T03:50:27.595Z,99703.84
2022-08-03T03:52:54.138Z,99704.19
2022-08-03T03:55:22.343Z,99710.75
2022-08-03T03:57:49.098Z,99714.22
2022-08-03T04:00:17.685Z,99704.56
2022-08-03T04:02:44.678Z,99710.41
2022-08-03T04:05:11.552Z,99708.34
2022-08-03T04:07:46.325Z,99709.72
2022-08-03T04:10:16.955Z,99712.50
2022-08-03T04:12:50.520Z,99716.63
2022-08-03T04:15:20.316Z,99713.34
2022-08-03T04:17:48.173Z,99718.19
2022-08-03T04:20:16.716Z,99712.06
2022-08-03T04:22:43.340Z,99715.69
2022-08-03T04:25:14.712Z,99704.63
2022-08-03T04:27:42.344Z,99714.63
2022-08-03T04:30:11.540Z,99716.00
2022-08-03T04:32:44.115Z,99715.09
2022-08-03T04:35:12.385Z,99709.63
2022-08-03T04:37:42.164Z,99706.13
2022-08-03T04:40:15.071Z,99719.97
2022-08-03T04:42:42.905Z,99721.31
2022-08-03T04:45:12.974Z,99717.00
2022-08-03T04:47:40.949Z,99709.34
2022-08-03T04:50:12.316Z,99718.53
2022-08-03T04:52:40.070Z,99716.78
2022-08-03T04:55:07.406Z,99717.34
2022-08-03T04:57:34.007Z,99715.81
2022-08-03T05:00:03.357Z,99716.22
2022-08-03T05:02:31.976Z,99711.50
2022-08-03T05:04:59.066Z,99708.09
2022-08-03T05:07:25.735Z,99702.78
2022-08-03T05:10:01.800Z,99709.50
2022-08-03T05:12:32.729Z,99702.91
2022-08-03T05:15:00.441Z,99706.31
2022-08-03T05:17:27.210Z,99705.81
2022-08-03T05:19:55.953Z,99707.28
2022-08-03T05:22:23.165Z,99711.56
2022-08-03T05:24:49.889Z,99715.47
2022-08-03T05:27:16.468Z,99714.13
2022-08-03T05:29:43.307Z,99719.16
2022-08-03T05:32:10.235Z,99712.22
2022-08-03T05:34:36.936Z,99712.88
2022-08-03T05:37:05.020Z,99713.81
2022-08-03T05:39:31.659Z,99714.47
2022-08-03T05:41:58.560Z,99710.34
2022-08-03T05:44:25.296Z,99704.22
2022-08-03T05:46:52.267Z,99715.09
2022-08-03T05:49:19.606Z,99718.56
2022-08-03T05:51:46.501Z,99715.09
2022-08-03T05:54:56.340Z,99719.66
2022-08-03T05:57:14.240Z,99718.78
2022-08-03T05:59:41.130Z,99717.78
2022-08-03T06:13:59.458Z,99698.66
2022-08-03T06:16:29.724Z,99718.88
2022-08-03T06:18:56.320Z,99719.94
2022-08-03T06:21:28.541Z,99725.53
2022-08-03T06:24:53.754Z,99698.06
2022-08-03T06:27:36.310Z,99720.88
2022-08-03T06:36:32.570Z,99718.28
2022-08-03T06:38:59.355Z,99716.59
2022-08-03T06:41:26.187Z,99732.56
2022-08-03T06:44:03.573Z,99729.63
2022-08-03T06:46:36.484Z,99717.63
2022-08-03T06:49:04.654Z,99726.56
2022-08-03T06:52:05.424Z,99724.78
2022-08-03T06:54:18.117Z,99736.28
2022-08-03T06:56:44.723Z,99720.31
2022-08-03T07:00:08.022Z,99727.34
2022-08-03T07:01:58.056Z,99722.91
2022-08-03T07:04:26.119Z,99718.88
2022-08-03T07:10:31.146Z,99723.13
2022-08-03T07:12:58.373Z,99723.47
2022-08-03T07:18:58.019Z,99734.69
2022-08-03T07:25:53.733Z,99739.97
2022-08-03T07:28:52.739Z,99735.00
2022-08-03T08:15:22.957Z,99736.44
2022-08-03T08:17:51.282Z,99730.78
2022-08-03T08:30:50.038Z,99746.06
2022-08-03T08:33:23.337Z,99743.16
2022-08-03T08:43:08.514Z,99738.97
2022-08-03T08:45:38.529Z,99728.03
2022-08-03T08:48:22.424Z,99738.00
2022-08-03T08:50:53.240Z,99740.69
2022-08-03T08:53:26.736Z,99737.97
2022-08-03T09:00:13.208Z,99746.59
2022-08-03T09:07:19.655Z,99739.34
2022-08-03T09:28:56.398Z,99734.56
2022-08-03T09:31:10.087Z,99744.97
2022-08-03T09:34:18.146Z,99741.50
2022-08-03T09:36:48.915Z,99732.94
2022-08-03T09:39:41.332Z,99723.31
2022-08-03T09:42:40.885Z,99744.50
2022-08-03T09:45:30.849Z,99745.69
2022-08-03T09:52:29.519Z,99737.84
2022-08-03T09:54:34.781Z,99738.09
2022-08-03T10:00:56.692Z,99731.38
2022-08-03T10:03:29.667Z,99733.28
2022-08-03T10:05:59.837Z,99721.63
2022-08-03T10:12:29.174Z,99734.50
2022-08-03T10:18:44.693Z,99719.47
2022-08-03T10:24:07.109Z,99718.25
2022-08-03T10:30:06.707Z,99730.72
2022-08-03T10:32:44.269Z,99705.44
2022-08-03T10:36:10.070Z,99707.75
2022-08-03T10:38:56.879Z,99706.56
2022-08-03T10:41:35.446Z,99689.56
2022-08-03T10:44:05.474Z,99692.13
2022-08-03T10:53:54.818Z,99675.75
2022-08-03T10:56:50.570Z,99698.69
2022-08-03T10:59:27.806Z,99698.28
2022-08-03T11:01:58.218Z,99690.84
2022-08-03T11:04:26.283Z,99689.09
2022-08-03T11:07:36.894Z,99680.06
2022-08-03T11:10:07.736Z,99681.22
2022-08-03T11:12:38.507Z,99681.00
2022-08-03T11:15:10.033Z,99687.38
2022-08-03T11:17:46.421Z,99667.31
2022-08-03T11:20:47.447Z,99671.88
2022-08-03T11:23:14.614Z,99675.22
2022-08-03T11:26:12.806Z,99678.34
2022-08-03T11:28:41.763Z,99681.78
2022-08-03T11:31:52.666Z,99683.00
2022-08-03T11:34:19.461Z,99676.81
2022-08-03T11:37:21.439Z,99675.34
2022-08-03T11:39:54.079Z,99666.91
2022-08-03T11:42:43.006Z,99674.31
2022-08-03T11:45:12.642Z,99681.59
2022-08-03T11:47:51.148Z,99671.16
2022-08-03T11:50:18.618Z,99674.78
2022-08-03T11:52:45.645Z,99673.72
2022-08-03T11:55:14.443Z,99676.41
2022-08-03T11:59:01.153Z,99670.94
2022-08-03T12:00:31.745Z,99659.78
2022-08-03T12:03:01.348Z,99669.03
2022-08-03T12:05:39.887Z,99666.28
2022-08-03T12:08:08.844Z,99664.94
2022-08-03T12:10:36.696Z,99677.06
2022-08-03T12:13:05.141Z,99672.84
2022-08-03T12:15:54.566Z,99671.38
2022-08-03T12:18:22.310Z,99666.88
2022-08-03T12:20:50.983Z,99651.38
2022-08-03T12:23:18.305Z,99666.50
2022-08-03T12:25:46.338Z,99660.63
2022-08-03T12:28:31.794Z,99657.81
2022-08-03T12:31:07.199Z,99654.19
2022-08-03T12:34:01.032Z,99653.13
2022-08-03T12:36:27.736Z,99642.50
2022-08-03T12:38:56.350Z,99646.22
2022-08-03T12:41:28.648Z,99651.16
2022-08-03T12:43:55.371Z,99648.19
2022-08-03T12:46:29.051Z,99653.31
2022-08-03T12:49:06.663Z,99654.06
2022-08-03T12:51:34.957Z,99657.16
2022-08-03T12:54:02.892Z,99648.03
2022-08-03T12:56:29.966Z,99646.59
2022-08-03T12:58:56.591Z,99639.50
2022-08-03T13:01:24.569Z,99647.28
2022-08-03T13:07:21.354Z,99647.88
2022-08-03T13:09:49.597Z,99643.22
2022-08-03T13:12:17.053Z,99643.47
2022-08-03T13:14:44.991Z,99654.69
2022-08-03T13:17:13.139Z,99635.53
2022-08-03T13:19:40.449Z,99631.31
2022-08-03T13:22:14.029Z,99638.00
2022-08-03T13:24:41.789Z,99633.78
2022-08-03T13:28:00.005Z,99626.22
2022-08-03T13:29:56.163Z,99631.38
2022-08-03T13:32:24.353Z,99623.25
2022-08-03T13:34:52.254Z,99630.38
2022-08-03T13:37:18.933Z,99625.13
2022-08-03T13:39:58.324Z,99626.03
2022-08-03T13:42:28.180Z,99627.38
2022-08-03T13:44:54.775Z,99634.94
2022-08-03T13:47:21.742Z,99627.34
2022-08-03T13:49:54.223Z,99622.22
2022-08-03T13:52:28.969Z,99619.38
2022-08-03T13:54:55.539Z,99620.44
2022-08-03T13:58:04.319Z,99613.44
2022-08-03T14:00:10.073Z,99612.75
2022-08-03T14:02:36.750Z,99608.31
2022-08-03T14:05:05.664Z,99600.88
2022-08-03T14:07:32.334Z,99613.22
2022-08-03T14:09:58.928Z,99603.47
2022-08-03T14:12:25.516Z,99603.94
2022-08-03T14:14:52.102Z,99607.88
2022-08-03T14:17:19.044Z,99600.69
2022-08-03T14:19:53.196Z,99598.00
2022-08-03T14:22:22.006Z,99590.41
2022-08-03T14:24:49.241Z,99587.09
2022-08-03T14:27:16.396Z,99592.09
2022-08-03T14:29:43.252Z,99598.09
2022-08-03T14:32:13.116Z,99597.53
2022-08-03T14:34:40.290Z,99593.69
2022-08-03T14:37:06.957Z,99581.75
2022-08-03T14:42:22.209Z,99586.09
2022-08-03T14:44:49.120Z,99578.53
2022-08-03T14:47:15.777Z,99585.19
2022-08-03T14:50:37.960Z,99575.34
2022-08-03T14:52:29.060Z,99570.69
2022-08-03T14:54:57.250Z,99565.03
2022-08-03T14:57:23.986Z,99560.47
2022-08-03T14:59:56.127Z,99568.78
2022-08-03T15:02:24.544Z,99566.25
2022-08-03T15:04:51.767Z,99566.44
2022-08-03T15:07:18.645Z,99564.81
2022-08-03T15:09:45.336Z,99573.78
2022-08-03T15:12:13.307Z,99565.81
2022-08-03T15:14:40.437Z,99555.28
2022-08-03T15:17:07.538Z,99551.91
2022-08-03T15:20:02.842Z,99561.53
2022-08-03T15:22:25.373Z,99561.22
2022-08-03T15:25:01.245Z,99554.03
2022-08-03T15:27:29.278Z,99552.28
2022-08-03T15:30:05.989Z,99549.97
2022-08-03T15:32:36.324Z,99549.00
2022-08-03T15:35:03.115Z,99546.84
2022-08-03T15:37:29.644Z,99543.38
2022-08-03T15:39:58.830Z,99545.91
2022-08-03T15:42:26.836Z,99547.16
2022-08-03T15:44:55.429Z,99540.88
2022-08-03T15:47:22.301Z,99545.06
2022-08-03T15:49:49.255Z,99535.53
2022-08-03T15:52:15.947Z,99542.22
2022-08-03T15:54:42.542Z,99541.63
2022-08-03T15:57:09.208Z,99536.28
2022-08-03T15:59:36.139Z,99543.06
2022-08-03T16:02:04.375Z,99539.41
2022-08-03T16:04:31.080Z,99530.78
2022-08-03T16:06:57.748Z,99537.03
2022-08-03T16:09:43.317Z,99533.59
2022-08-03T16:12:15.893Z,99532.47
2022-08-03T16:14:52.009Z,99533.47
2022-08-03T16:17:20.986Z,99542.38
2022-08-03T16:19:47.748Z,99532.47
2022-08-03T16:22:14.476Z,99536.59
2022-08-03T16:24:41.280Z,99533.41
2022-08-03T16:27:23.285Z,99532.31
2022-08-03T16:29:57.545Z,99529.47
2022-08-03T16:32:25.823Z,99518.22
2022-08-03T16:34:52.446Z,99533.94
2022-08-03T16:37:39.747Z,99528.22
2022-08-03T16:40:17.356Z,99528.19
2022-08-03T16:43:00.472Z,99532.03
2022-08-03T16:45:27.712Z,99529.72
2022-08-03T16:48:05.729Z,99532.16
2022-08-03T16:50:33.797Z,99529.03
2022-08-03T16:53:00.396Z,99533.50
2022-08-03T16:55:43.480Z,99529.75
2022-08-03T16:58:13.565Z,99528.00
2022-08-03T17:00:41.762Z,99518.44
2022-08-03T17:03:20.604Z,99519.81
2022-08-03T17:05:50.739Z,99527.25
2022-08-03T17:08:26.596Z,99519.44
2022-08-03T17:10:54.981Z,99524.66
2022-08-03T17:13:22.953Z,99521.84
2022-08-03T17:15:58.088Z,99521.34
2022-08-03T17:18:36.913Z,99509.47
2022-08-03T17:21:05.729Z,99505.84
2022-08-03T17:23:39.328Z,99522.75
2022-08-03T17:26:20.865Z,99524.94
2022-08-03T17:28:57.512Z,99513.66
2022-08-03T17:31:30.814Z,99519.25
2022-08-03T17:34:04.539Z,99514.59
2022-08-03T17:37:02.116Z,99516.56
2022-08-03T17:39:36.154Z,99516.56
2022-08-03T17:42:17.099Z,99510.88
2022-08-03T17:44:56.576Z,99500.06
2022-08-03T17:47:23.275Z,99516.16
2022-08-03T17:49:57.416Z,99509.53
2022-08-03T17:52:28.625Z,99512.91
2022-08-03T17:55:55.894Z,99514.63
2022-08-03T17:58:03.319Z,99521.53
2022-08-03T18:00:30.812Z,99528.38
2022-08-03T18:03:06.195Z,99523.13
2022-08-03T18:06:10.760Z,99525.66
2022-08-03T18:08:27.189Z,99519.72
2022-08-03T18:11:03.549Z,99518.69
2022-08-03T18:13:58.041Z,99517.97
2022-08-03T18:16:31.549Z,99514.91
2022-08-03T18:19:01.318Z,99507.59
2022-08-03T18:22:02.021Z,99511.91
2022-08-03T18:24:25.001Z,99525.75
2022-08-03T18:26:53.361Z,99527.97
2022-08-03T18:29:22.067Z,99521.72
2022-08-03T18:32:03.371Z,99514.00
2022-08-03T18:34:34.060Z,99517.81
2022-08-03T18:37:07.150Z,99532.75
2022-08-03T18:39:38.897Z,99522.94
2022-08-03T18:42:19.873Z,99524.88
2022-08-03T18:44:56.151Z,99532.69
2022-08-03T18:47:50.855Z,99530.47
2022-08-03T18:50:24.864Z,99532.41
2022-08-03T18:53:02.380Z,99519.16
2022-08-03T18:55:33.407Z,99517.56
2022-08-03T18:58:09.681Z,99524.31
2022-08-03T19:00:56.651Z,99523.22
2022-08-03T19:03:24.878Z,99523.56
2022-08-03T19:06:19.152Z,99520.56
2022-08-03T19:08:54.194Z,99527.69
2022-08-03T19:11:28.206Z,99528.59
2022-08-03T19:13:58.260Z,99532.09
2022-08-03T19:16:31.017Z,99533.53
2022-08-03T19:18:59.915Z,99529.97
2022-08-03T19:21:28.162Z,99536.25
2022-08-03T19:24:00.366Z,99539.75
2022-08-03T19:26:30.125Z,99530.81
2022-08-03T19:28:58.373Z,99541.09
2022-08-03T19:31:30.668Z,99540.13
2022-08-03T19:33:59.630Z,99542.94
2022-08-03T19:36:27.294Z,99538.53
2022-08-03T19:38:57.500Z,99542.81
2022-08-03T19:41:27.423Z,99539.00
2022-08-03T19:43:59.794Z,99540.38
2022-08-03T19:46:30.958Z,99537.97
2022-08-03T19:49:02.837Z,99546.22
2022-08-03T19:52:01.627Z,99536.91
2022-08-03T19:54:29.803Z,99541.16
2022-08-03T19:57:00.157Z,99546.81
2022-08-03T19:59:31.364Z,99547.91
2022-08-03T20:01:58.009Z,99539.56
2022-08-03T20:04:25.077Z,99547.97
2022-08-03T20:06:52.345Z,99548.81
2022-08-03T20:09:20.724Z,99546.59
2022-08-03T20:11:47.797Z,99544.97
2022-08-03T20:14:20.833Z,99540.00
2022-08-03T20:16:53.927Z,99531.66
2022-08-03T20:19:21.326Z,99539.16
2022-08-03T20:21:50.947Z,99541.56
2022-08-03T20:24:25.268Z,99534.94
2022-08-03T20:26:54.234Z,99536.03
2022-08-03T20:30:05.429Z,99541.84
2022-08-03T20:32:15.314Z,99541.66
2022-08-03T20:34:42.589Z,99550.66
2022-08-03T20:37:09.570Z,99544.66
2022-08-03T20:39:40.057Z,99548.81
2022-08-03T20:42:14.786Z,99542.16
2022-08-03T20:45:04.273Z,99557.00
2022-08-03T20:47:33.798Z,99558.78
2022-08-03T20:50:03.764Z,99537.50
2022-08-03T20:52:31.547Z,99559.00
2022-08-03T20:54:59.854Z,99551.91
2022-08-03T20:57:33.192Z,99554.50
2022-08-03T21:00:00.457Z,99539.00
2022-08-03T21:02:29.976Z,99542.44
2022-08-03T21:04:58.349Z,99548.28
2022-08-03T21:08:04.112Z,99543.13
2022-08-03T21:10:17.020Z,99537.31
2022-08-03T21:12:50.463Z,99538.38
2022-08-03T21:16:11.893Z,99533.84
2022-08-03T21:18:10.711Z,99546.72
2022-08-03T21:20:40.492Z,99539.47
2022-08-03T21:23:09.431Z,99533.69
2022-08-03T21:25:37.798Z,99532.78
2022-08-03T21:28:05.946Z,99528.69
2022-08-03T21:30:32.502Z,99527.84
2022-08-03T21:32:59.118Z,99524.81
2022-08-03T21:35:26.488Z,99528.69
2022-08-03T21:37:54.057Z,99519.66
2022-08-03T21:40:20.641Z,99526.97
2022-08-03T21:42:48.638Z,99519.03
2022-08-03T21:45:17.407Z,99530.63
2022-08-03T21:47:45.555Z,99525.28
2022-08-03T21:50:13.223Z,99532.34
2022-08-03T21:52:42.905Z,99530.41
2022-08-03T21:55:20.410Z,99523.09
2022-08-03T21:57:52.277Z,99525.69
2022-08-03T22:00:22.436Z,99516.25
2022-08-03T22:02:53.147Z,99522.03
2022-08-03T22:05:29.050Z,99517.94
2022-08-03T22:08:10.869Z,99521.41
2022-08-03T22:10:37.752Z,99531.28
2022-08-03T22:13:06.025Z,99525.88
2022-08-03T22:15:33.527Z,99530.00
2022-08-03T22:18:00.564Z,99528.91
2022-08-03T22:20:27.178Z,99531.72
2022-08-03T22:22:56.783Z,99526.31
2022-08-03T22:25:27.454Z,99529.97
2022-08-03T22:27:54.866Z,99527.38
2022-08-03T22:30:22.914Z,99536.00
2022-08-03T22:32:52.587Z,99530.41
2022-08-03T22:35:21.285Z,99520.28
2022-08-03T22:37:49.414Z,99518.13
2022-08-03T22:40:17.322Z,99530.63
2022-08-03T22:42:45.278Z,99530.63
2022-08-03T22:45:12.359Z,99529.09
2022-08-03T22:48:00.812Z,99527.59
2022-08-03T22:50:32.266Z,99529.06
2022-08-03T22:53:01.209Z,99523.63
2022-08-03T22:55:27.869Z,99530.31
2022-08-03T22:57:56.135Z,99525.66
2022-08-03T23:00:23.391Z,99523.28
2022-08-03T23:02:51.551Z,99527.59
2022-08-03T23:06:02.320Z,99524.53
2022-08-03T23:08:14.941Z,99523.19
2022-08-03T23:10:46.761Z,99522.34
2022-08-03T23:13:15.722Z,99527.50
2022-08-03T23:15:48.402Z,99529.38
2022-08-03T23:18:15.060Z,99522.28
2022-08-03T23:20:44.667Z,99521.44
2022-08-03T23:23:12.693Z,99521.25
2022-08-03T23:25:41.534Z,99518.22
2022-08-03T23:28:09.258Z,99517.09
2022-08-03T23:30:37.270Z,99513.69
2022-08-03T23:33:04.321Z,99512.81
2022-08-03T23:36:29.846Z,99511.78
2022-08-03T23:38:22.234Z,99512.69
2022-08-03T23:40:51.376Z,99501.47
2022-08-03T23:43:45.026Z,99511.63
2022-08-03T23:46:08.757Z,99515.19
2022-08-03T23:48:35.645Z,99499.53
2022-08-03T23:51:09.887Z,99507.53
2022-08-03T23:53:47.659Z,99512.69
2022-08-03T23:56:23.349Z,99502.81
2022-08-03T23:59:05.037Z,99507.53
